This is the latest recevied weather packets stored in our database for station/object DB0LS-15. If no packets are shown the sender has not sent any weather packets the latest 1 day(s).
| Time | Temp. | Humidity | Pressure | Rain* | Wind** | Luminosity | Snow |
|---|---|---|---|---|---|---|---|
| 1836274701 | 18.89° C | 76% | 1001.4 hPa | 0 mm | 1.79 m/s, 155° | - | - |
| 1836274555 | 18.33° C | 77% | 1001.5 hPa | 0 mm | 1.34 m/s, 144° | - | - |
| 1836274096 | 18.33° C | 77% | 1001.6 hPa | 0 mm | 2.24 m/s, 165° | - | - |
| 1778027134 | 12.22° C | 96% | 986 hPa | 1.27 mm | 3.58 m/s, 48° | - | - |
| 1778026530 | 12.22° C | 96% | 986.1 hPa | 1.52 mm | 3.13 m/s, 42° | - | - |
| 1778025927 | 12.22° C | 96% | 986 hPa | 1.27 mm | 2.68 m/s, 23° | - | - |
| 1778025323 | 12.22° C | 96% | 986.9 hPa | 2.29 mm | 3.13 m/s, 41° | - | - |
| 1778024719 | 12.22° C | 96% | 987.3 hPa | 9.4 mm | 2.24 m/s, 43° | - | - |
| 1778024115 | 12.22° C | 97% | 987.5 hPa | 10.41 mm | 2.68 m/s, 39° | - | - |
| 1778023572 | 12.22° C | 97% | 987.7 hPa | 12.19 mm | 2.24 m/s, 50° | - | - |
| 1778022968 | 12.78° C | 97% | 988.1 hPa | 13.46 mm | 2.24 m/s, 34° | - | - |
| 1778022364 | 12.78° C | 97% | 988.5 hPa | 13.72 mm | 1.79 m/s, 44° | - | - |
| 1778021760 | 12.78° C | 97% | 988.6 hPa | 14.99 mm | 0.89 m/s, 62° | - | - |
| 1778021157 | 13.33° C | 97% | 989.2 hPa | 9.65 mm | 2.24 m/s, 182° | - | - |
| 1778020553 | 12.78° C | 96% | 988.5 hPa | 8.13 mm | 0.45 m/s, 300° | - | - |
| 1778019949 | 12.78° C | 96% | 988 hPa | 6.35 mm | 0.45 m/s, 8° | - | - |
| 1778019345 | 13.33° C | 95% | 988.2 hPa | 4.83 mm | 1.34 m/s, 44° | - | - |
| 1778018742 | 13.33° C | 94% | 988.2 hPa | 4.32 mm | 0.89 m/s, 33° | - | - |
| 1778018138 | 13.89° C | 93% | 988.3 hPa | 1.78 mm | 2.24 m/s, 26° | - | - |
| 1778017534 | 13.89° C | 92% | 988.7 hPa | 0 mm | 1.79 m/s, 28° | - | - |
| 1778016930 | 13.89° C | 92% | 988.7 hPa | 0 mm | 1.34 m/s, 36° | - | - |
| 1778016329 | 13.89° C | 92% | 988.7 hPa | 0 mm | 0.89 m/s, 44° | - | - |
| 1778015723 | 14.44° C | 91% | 988.7 hPa | 0 mm | 1.34 m/s, 32° | - | - |
| 1778015119 | 14.44° C | 91% | 988.7 hPa | 0 mm | 1.79 m/s, 52° | - | - |
| 1778014515 | 14.44° C | 91% | 988.3 hPa | 0 mm | 1.34 m/s, 45° | - | - |
* Rain latest hour (hover to see other rain measurements)
** Current wind speed in m/s (hover to see current wind gust speed)